Terminal Aerodrome Forecast
Issued by NWS

Home | Current Version | Previous Version | Text Only | Print | Product List | Glossary On
Versions: 1 2 3 4 5 6 7 8 9 10 11 12 13 14
000
FTUS44 KLIX 212320
TAFMCB
TAF
KMCB 212320Z 2200/2224 00000KT 5SM TSRA BKN035CB
     FM220130 00000KT 5SM BR BKN110
     FM220400 00000KT P6SM SCT110 PROB30 2215/2219 4SM TSRA BKN035CB
      BKN100
     FM221900 19004KT P6SM BKN060 PROB30 2219/2223 4SM TSRA
      OVC040CB=

USA.gov is the U.S. government's official web portal to all federal, state and local government web resources and services.